Jefferson, NC

10:14 AM EDT on September 22, 2017 (GMT -0400)
Ashe County

Weather History for KGEV - December, 2013

Change the Weather History Date:

Tuesday, December 17, 2013

  Actual Average Record
Temperature  
Mean Temperature 40 °F -  
Max Temperature 49 °F 43 °F 69 °F (2006)
Min Temperature 32 °F 23 °F 2 °F (1989)
Degree Days  
Heating Degree Days 24    
Moisture  
Dew Point 26 °F    
Average Humidity 56    
Maximum Humidity 81    
Minimum Humidity 39    
Precipitation  
Precipitation 0.07 in - - ()
Sea Level Pressure  
Sea Level Pressure 29.99 in    
Wind  
Wind Speed 11 mph (West)    
Max Wind Speed 34 mph    
Max Gust Speed 51 mph    
Visibility 10 miles    
Events Rain , Snow    
Averages and records for this station are not official NWS values.
T = Trace of Precipitation, MM = Missing Value Source: NWS Daily Summary

Daily Weather History Graph

Daily Weather History Graph

Search for Another Location

Airport or City:

Trip Planner

Search our weather history database for the weather conditions in past years. The results will help you decide how hot, cold, wet, or windy it might be!

Date:

Astronomy

Dec. 17, 2013 Rise Set
Actual Time 7:31 AM EST 5:12 PM EST
Civil Twilight 7:02 AM EST 5:41 PM EST
Nautical Twilight 6:30 AM EST 6:13 PM EST
Astronomical Twilight 5:59 AM EST 6:44 PM EST
Moon 5:49 PM EST (12/17) 7:28 AM EST (12/17)
Length of Visible Light 10h 38m
Length of Day
9h 40m
Full, 100% of the Moon is Illuminated
Dec 17
Full
Dec 25
Last Quarter
Jan 1
New
Jan 7
First Quarter
Jan 15
Full

Hourly Weather History & Observations

Time (EST) Temp. Windchill Dew Point Humidity Pressure Visibility Wind Dir Wind Speed Gust Speed Precip Events Conditions
12:15 AM 38.3 °F 31.4 °F 26.6 °F 63% 30.06 in 10.0 mi West 10.4 mph 18.4 mph N/A   Clear
12:35 AM 38.3 °F 30.1 °F 26.6 °F 63% 30.05 in 10.0 mi West 13.8 mph 18.4 mph N/A   Clear
12:55 AM 38.3 °F 31.4 °F 26.6 °F 63% 30.05 in 10.0 mi WSW 10.4 mph 19.6 mph N/A   Clear
1:15 AM 38.3 °F 32.5 °F 26.4 °F 62% 30.05 in 10.0 mi WSW 8.1 mph 18.4 mph N/A   Clear
1:40 AM 38.3 °F 30.9 °F 26.2 °F 62% 30.04 in 10.0 mi WSW 11.5 mph 20.7 mph N/A   Clear
1:55 AM 38.5 °F 29.9 °F 25.9 °F 61% 30.04 in 10.0 mi WSW 15.0 mph 19.6 mph N/A   Clear
2:15 AM 38.8 °F 30.8 °F 25.7 °F 59% 30.05 in 10.0 mi WSW 13.8 mph 20.7 mph N/A   Clear
2:35 AM 38.3 °F 33.2 °F 25.5 °F 60% 30.06 in 10.0 mi WSW 6.9 mph - N/A   Clear
2:55 AM 37.8 °F - 25.3 °F 61% 30.06 in 10.0 mi Calm Calm - N/A   Clear
3:15 AM 37.6 °F 34.0 °F 25.3 °F 61% 30.06 in 10.0 mi SW 4.6 mph - N/A   Clear
3:35 AM 38.1 °F 34.6 °F 25.2 °F 60% 30.07 in 10.0 mi WSW 4.6 mph - N/A   Clear
3:55 AM 39.0 °F 35.7 °F 25.2 °F 58% 30.06 in 10.0 mi WSW 4.6 mph - N/A   Clear
4:15 AM 38.5 °F 35.0 °F 25.2 °F 59% 30.06 in 10.0 mi SW 4.6 mph - N/A   Clear
4:35 AM 38.1 °F - 25.2 °F 60% 30.05 in 10.0 mi Calm Calm - N/A   Clear
4:55 AM 37.2 °F - 25.0 °F 61% 30.05 in 10.0 mi Calm Calm - N/A   Clear
5:15 AM 37.4 °F - 25.2 °F 61% 30.05 in 10.0 mi Calm Calm - N/A   Clear
5:35 AM 37.4 °F 32.1 °F 25.2 °F 61% 30.04 in 10.0 mi SW 6.9 mph - N/A   Clear
5:55 AM 39.0 °F 36.8 °F 25.2 °F 58% 30.04 in 10.0 mi West 3.5 mph 21.9 mph N/A   Clear
6:15 AM 39.0 °F 33.4 °F 24.8 °F 57% 30.04 in 10.0 mi WSW 8.1 mph - N/A   Clear
6:35 AM 39.0 °F 34.8 °F 24.8 °F 57% 30.04 in 10.0 mi SW 5.8 mph - N/A   Clear
6:55 AM 39.0 °F 32.8 °F 25.0 °F 57% 30.04 in 10.0 mi WSW 9.2 mph 21.9 mph N/A   Clear
7:15 AM 39.2 °F 31.6 °F 25.5 °F 58% 30.03 in 10.0 mi WSW 12.7 mph 26.5 mph N/A   Clear
7:35 AM 39.2 °F 31.2 °F 25.3 °F 58% 30.04 in 10.0 mi West 13.8 mph 24.2 mph N/A   Clear
7:55 AM 39.2 °F 31.6 °F 25.5 °F 58% 30.03 in 10.0 mi West 12.7 mph 19.6 mph N/A   Clear
8:15 AM 39.4 °F 31.1 °F 25.5 °F 58% 30.04 in 10.0 mi West 15.0 mph 21.9 mph N/A   Clear
8:35 AM 39.7 °F 32.3 °F 25.5 °F 57% 30.04 in 10.0 mi West 12.7 mph 25.3 mph N/A   Clear
8:55 AM 40.1 °F 33.2 °F 25.7 °F 56% 30.04 in 10.0 mi West 11.5 mph 21.9 mph N/A   Clear
9:15 AM 40.8 °F 32.6 °F 26.1 °F 56% 30.04 in 10.0 mi West 16.1 mph 24.2 mph N/A   Clear
9:35 AM 41.5 °F 35.4 °F 26.2 °F 55% 30.04 in 10.0 mi West 10.4 mph 23.0 mph N/A   Clear
9:55 AM 41.9 °F 35.0 °F 26.2 °F 54% 30.04 in 10.0 mi West 12.7 mph 18.4 mph N/A   Clear
10:15 AM 42.8 °F 34.8 °F 26.4 °F 52% 30.04 in 10.0 mi West 17.3 mph 25.3 mph N/A   Clear
10:35 AM 43.0 °F 36.0 °F 26.4 °F 52% 30.04 in 10.0 mi West 13.8 mph 24.2 mph N/A   Clear
10:55 AM 43.9 °F 36.8 °F 26.6 °F 51% 30.03 in 10.0 mi West 15.0 mph 21.9 mph N/A   Clear
11:15 AM 44.6 °F 38.8 °F 26.8 °F 50% 30.03 in 10.0 mi West 11.5 mph 19.6 mph N/A   Clear
11:35 AM 45.1 °F 40.8 °F 27.3 °F 50% 30.02 in 10.0 mi WSW 8.1 mph 16.1 mph N/A   Clear
11:55 AM 45.5 °F 39.2 °F 27.1 °F 49% 30.01 in 10.0 mi West 13.8 mph 20.7 mph N/A   Clear
12:15 PM 45.5 °F 40.3 °F 27.3 °F 49% 30.00 in 10.0 mi West 10.4 mph 21.9 mph N/A   Clear
12:35 PM 46.2 °F 40.8 °F 27.1 °F 47% 29.98 in 10.0 mi West 11.5 mph - N/A   Clear
12:55 PM 46.4 °F 41.5 °F 27.1 °F 47% 29.97 in 10.0 mi West 10.4 mph - N/A   Clear
1:15 PM 47.1 °F - 27.1 °F 46% 29.95 in 10.0 mi WSW 9.2 mph 16.1 mph N/A   Clear
1:35 PM 48.2 °F - 27.1 °F 44% 29.95 in 10.0 mi West 10.4 mph 19.6 mph N/A   Clear
1:55 PM 48.0 °F - 26.4 °F 43% 29.94 in 10.0 mi West 11.5 mph 20.7 mph N/A   Clear
2:15 PM 48.2 °F - 26.1 °F 42% 29.93 in 10.0 mi West 12.7 mph 25.3 mph N/A   Clear
2:35 PM 48.2 °F - 26.2 °F 42% 29.92 in 10.0 mi West 11.5 mph 19.6 mph N/A   Clear
2:55 PM 48.9 °F - 25.9 °F 41% 29.92 in 10.0 mi WSW 11.5 mph 20.7 mph N/A   Clear
3:15 PM 48.6 °F - 25.9 °F 41% 29.92 in 10.0 mi West 6.9 mph 19.6 mph N/A   Clear
3:35 PM 49.5 °F - 25.7 °F 40% 29.91 in 10.0 mi West 9.2 mph 19.6 mph N/A   Clear
3:55 PM 48.7 °F - 25.2 °F 40% 29.90 in 10.0 mi West 13.8 mph 18.4 mph N/A   Clear
4:15 PM 48.6 °F - 24.8 °F 39% 29.90 in 10.0 mi WSW 11.5 mph 18.4 mph N/A   Clear
4:35 PM 47.7 °F - 24.6 °F 41% 29.90 in 10.0 mi WSW 11.5 mph 17.3 mph N/A   Clear
4:55 PM 46.8 °F - 24.8 °F 42% 29.90 in 10.0 mi West 9.2 mph 20.7 mph N/A   Clear
5:15 PM 45.9 °F 40.4 °F 25.5 °F 45% 29.90 in 10.0 mi West 11.5 mph 19.6 mph N/A   Mostly Cloudy
5:35 PM 45.5 °F 39.9 °F 25.9 °F 46% 29.90 in 10.0 mi West 11.5 mph 29.9 mph N/A   Mostly Cloudy
5:55 PM 45.0 °F 38.5 °F 26.1 °F 48% 29.90 in 10.0 mi West 13.8 mph 26.5 mph N/A   Overcast
6:15 PM 44.8 °F 39.4 °F 26.2 °F 48% 29.89 in 10.0 mi WSW 10.4 mph 21.9 mph N/A   Overcast
6:35 PM 44.2 °F 38.0 °F 27.9 °F 53% - 7.0 mi WSW 12.7 mph 21.9 mph N/A Rain Light Rain
6:55 PM 39.0 °F 29.0 °F 32.4 °F 77% 29.94 in 2.5 mi West 20.7 mph 34.5 mph 0.03 in Rain Rain
7:15 PM 38.3 °F 30.9 °F 32.7 °F 80% 29.95 in 7.0 mi West 11.5 mph 21.9 mph 0.02 in Rain Light Rain
7:35 PM 37.8 °F 29.0 °F 32.0 °F 80% - 0.8 mi NW 15.0 mph 26.5 mph 0.02 in Snow Light Snow
7:55 PM 36.3 °F 24.9 °F 31.1 °F 81% 29.96 in 10.0 mi NW 23.0 mph 32.2 mph 0.04 in   Overcast
8:15 PM 35.8 °F 24.2 °F 29.7 °F 78% 29.97 in 10.0 mi WNW 23.0 mph 28.8 mph N/A   Overcast
8:35 PM 36.0 °F 25.6 °F 26.4 °F 68% 29.97 in 10.0 mi WNW 18.4 mph 25.3 mph N/A   Mostly Cloudy
8:55 PM 35.6 °F 24.8 °F 25.7 °F 67% 29.97 in 10.0 mi WNW 19.6 mph 26.5 mph N/A   Scattered Clouds
9:15 PM 35.4 °F 25.3 °F 24.4 °F 64% 29.98 in 10.0 mi WNW 17.3 mph 36.8 mph N/A   Scattered Clouds
9:35 PM 35.1 °F 23.3 °F 23.7 °F 63% 29.97 in 10.0 mi WNW 23.0 mph 38.0 mph N/A   Clear
9:55 PM 35.1 °F 24.1 °F 22.5 °F 60% 29.98 in 10.0 mi WNW 19.6 mph 38.0 mph N/A   Scattered Clouds
10:15 PM 34.7 °F 21.8 °F 22.3 °F 61% 29.97 in 10.0 mi WNW 27.6 mph 40.3 mph N/A   Clear
10:35 PM 34.7 °F 22.0 °F 20.7 °F 57% 29.97 in 10.0 mi NW 26.5 mph 35.7 mph N/A   Clear
10:55 PM 34.2 °F 21.3 °F 21.0 °F 59% 29.97 in 10.0 mi WNW 26.5 mph 38.0 mph N/A   Clear
11:15 PM 33.8 °F 20.3 °F 20.8 °F 59% 29.96 in 10.0 mi NW 28.8 mph 40.3 mph N/A   Mostly Cloudy
11:35 PM 32.0 °F 16.7 °F 22.3 °F 67% 29.94 in 5.0 mi WNW 34.5 mph 50.6 mph N/A Snow Light Snow
11:55 PM 32.0 °F 16.7 °F 21.2 °F 64% 29.94 in 10.0 mi WNW 34.5 mph 49.5 mph N/A Snow Light Snow